KENL

Centralia Municipal Airport

Centralia, Illinois, USA
METAR KENL 202015Z AUTO 21010KT 10SM SCT034 BKN042 BKN050 29/23 A2979 RMK AO2 LTG DSNT W T02870227
Observed Flight Rules
Aug-20 @ 20:15 UTC (14 minutes ago) Visual Flight Rules
Wind Visibility Clouds
210° at 10 knots 10 miles
  • Scattered at 3,400' AGL
  • Broken at 4,200' AGL
  • Broken at 5,000' AGL
Temperatures Readings
Current 29°C / 84°F
Dewpoint 23°C / 73°F
Humidity 70%
Altimeter 29.79" Hg
Pressure 1009 hPa
Elevation 163
METAR KENL 202015Z AUTO 21010KT 10SM SCT034 BKN042 BKN050 29/23 A2979 RMK AO2 LTG DSNT W T02870227
Observed Flight Rules
Aug-20 @ 20:15 UTC
(14 minutes ago)
VFR
Wind Visibility
210° at 10 knots 10 miles
Clouds
  • Scattered at 3,400' AGL
  • Broken at 4,200' AGL
  • Broken at 5,000' AGL
Temperature Dewpoint
29°C / 84°F 23°C / 73°F
Humidity Altimeter Pressure
70% 29.79" Hg 1009 hPa